createdAt,value
2023-01-27T00:00:53.364Z,52.22
2023-01-27T00:03:21.095Z,37.75
2023-01-27T00:05:49.756Z,38.50
2023-01-27T00:08:17.791Z,48.75
2023-01-27T00:10:45.584Z,40.63
2023-01-27T00:13:29.497Z,55.90
2023-01-27T00:15:57.501Z,36.95
2023-01-27T00:18:25.853Z,36.33
2023-01-27T00:21:11.654Z,32.75
2023-01-27T00:24:08.501Z,32.35
2023-01-27T00:26:36.231Z,35.28
2023-01-27T00:29:03.783Z,37.42
2023-01-27T00:31:49.686Z,33.33
2023-01-27T00:34:17.231Z,46.28
2023-01-27T00:36:44.738Z,43.00
2023-01-27T00:39:12.373Z,44.78
2023-01-27T00:41:40.205Z,37.42
2023-01-27T00:44:13.036Z,36.70
2023-01-27T00:46:42.650Z,36.33
2023-01-27T00:49:10.921Z,28.23
2023-01-27T00:51:39.761Z,40.60
2023-01-27T00:54:08.324Z,25.52
2023-01-27T00:56:36.644Z,27.40
2023-01-27T00:59:05.478Z,29.75
2023-01-27T01:04:05.268Z,33.58
2023-01-27T01:06:34.070Z,24.58
2023-01-27T01:09:02.511Z,32.17
2023-01-27T01:11:31.165Z,33.53
2023-01-27T01:14:00.333Z,117.95
2023-01-27T01:16:29.893Z,121.78
2023-01-27T01:18:59.390Z,79.90
2023-01-27T01:21:28.935Z,125.43
2023-01-27T01:23:58.080Z,155.27
2023-01-27T01:26:27.094Z,201.80
2023-01-27T01:28:56.371Z,130.50
2023-01-27T01:31:25.813Z,79.18
2023-01-27T01:33:55.116Z,88.65
2023-01-27T01:36:24.226Z,72.20
2023-01-27T01:38:57.075Z,60.28
2023-01-27T01:41:26.202Z,39.70
2023-01-27T01:43:54.982Z,83.65
2023-01-27T01:46:23.996Z,126.00
2023-01-27T01:48:57.000Z,121.78
2023-01-27T01:51:40.012Z,176.77
2023-01-27T01:54:29.333Z,209.18
2023-01-27T01:57:09.371Z,313.08
2023-01-27T01:59:42.404Z,324.65
2023-01-27T02:02:16.137Z,244.30
2023-01-27T02:05:06.590Z,167.02
2023-01-27T02:07:43.661Z,79.15
2023-01-27T02:10:12.996Z,73.70
2023-01-27T02:12:42.061Z,70.25
2023-01-27T02:15:12.193Z,60.20
2023-01-27T02:17:40.994Z,54.85
2023-01-27T02:20:28.153Z,38.38
2023-01-27T02:23:23.624Z,32.72
2023-01-27T02:25:57.554Z,52.50
2023-01-27T02:28:30.765Z,76.80
2023-01-27T02:31:00.046Z,62.08
2023-01-27T02:33:28.298Z,55.17
2023-01-27T02:36:09.129Z,41.22
2023-01-27T02:38:45.791Z,47.22
2023-01-27T02:41:16.764Z,49.63
2023-01-27T02:43:46.918Z,32.85
2023-01-27T02:46:14.586Z,35.17
2023-01-27T02:48:42.021Z,35.95
2023-01-27T02:51:09.411Z,34.20
2023-01-27T02:53:37.141Z,32.08
2023-01-27T02:56:05.261Z,31.73
2023-01-27T02:58:34.605Z,28.83
2023-01-27T03:01:02.188Z,22.83
2023-01-27T03:03:29.834Z,27.25
2023-01-27T03:05:57.270Z,56.65
2023-01-27T03:08:24.920Z,56.33
2023-01-27T03:10:53.250Z,58.47
2023-01-27T03:13:24.166Z,58.63
2023-01-27T03:16:12.068Z,36.85
2023-01-27T03:18:40.867Z,45.05
2023-01-27T03:21:08.419Z,45.40
2023-01-27T03:23:35.919Z,46.60
2023-01-27T03:26:07.170Z,36.67
2023-01-27T03:28:35.226Z,43.15
2023-01-27T03:31:09.680Z,23.60
2023-01-27T03:33:43.129Z,20.38
2023-01-27T03:36:29.015Z,31.08
2023-01-27T03:39:14.991Z,23.95
2023-01-27T03:42:01.047Z,25.55
2023-01-27T03:44:47.163Z,21.20
2023-01-27T03:47:14.565Z,18.00
2023-01-27T03:49:41.932Z,23.85
2023-01-27T03:52:09.320Z,23.38
2023-01-27T03:54:36.831Z,27.52
2023-01-27T03:57:06.356Z,15.27
2023-01-27T03:59:34.457Z,23.98
2023-01-27T04:02:20.845Z,91.50
2023-01-27T04:05:06.823Z,121.35
2023-01-27T04:07:38.084Z,48.03
2023-01-27T04:10:06.254Z,23.30
2023-01-27T04:12:33.781Z,24.23
2023-01-27T04:15:01.198Z,17.88
2023-01-27T04:17:30.798Z,22.17
2023-01-27T04:19:58.532Z,28.77
2023-01-27T04:22:26.001Z,25.15
2023-01-27T04:24:53.997Z,33.30
2023-01-27T04:27:21.415Z,25.98
2023-01-27T04:29:48.834Z,20.65
2023-01-27T04:32:17.039Z,27.80
2023-01-27T04:34:44.545Z,30.67
2023-01-27T04:37:12.006Z,21.98
2023-01-27T04:39:41.464Z,32.58
2023-01-27T04:42:08.893Z,29.60
2023-01-27T04:44:36.505Z,27.88
2023-01-27T04:47:06.368Z,27.25
2023-01-27T04:49:33.922Z,22.88
2023-01-27T04:52:03.706Z,20.92
2023-01-27T04:54:31.357Z,18.80
2023-01-27T04:57:00.531Z,32.15
2023-01-27T04:59:28.031Z,17.33
2023-01-27T05:01:55.699Z,24.92
2023-01-27T05:04:26.358Z,26.23
2023-01-27T05:06:54.341Z,26.92
2023-01-27T05:09:22.317Z,38.80
2023-01-27T05:11:49.874Z,39.22
2023-01-27T05:14:17.327Z,42.10
2023-01-27T05:16:45.000Z,41.50
2023-01-27T05:19:13.052Z,44.75
2023-01-27T05:21:40.755Z,51.17
2023-01-27T05:24:08.336Z,52.75
2023-01-27T05:26:36.701Z,38.95
2023-01-27T05:29:04.207Z,35.20
2023-01-27T05:31:32.285Z,26.98
2023-01-27T05:34:02.586Z,22.77
2023-01-27T05:36:30.179Z,21.70
2023-01-27T05:38:59.584Z,28.70
2023-01-27T05:41:28.931Z,29.20
2023-01-27T05:43:56.716Z,34.65
2023-01-27T05:46:25.648Z,24.33
2023-01-27T05:48:54.550Z,28.83
2023-01-27T05:51:23.339Z,29.15
2023-01-27T05:53:50.977Z,31.95
2023-01-27T05:56:18.959Z,24.17
2023-01-27T05:58:49.308Z,31.15
2023-01-27T06:01:27.945Z,23.83
2023-01-27T06:03:56.041Z,27.33
2023-01-27T06:06:24.584Z,23.17
2023-01-27T06:08:52.513Z,38.70
2023-01-27T06:11:20.607Z,25.33
2023-01-27T06:13:49.902Z,25.42
2023-01-27T06:16:18.347Z,27.10
2023-01-27T06:18:46.653Z,29.40
2023-01-27T06:21:14.908Z,30.27
2023-01-27T06:23:42.361Z,38.58
2023-01-27T06:26:14.700Z,28.65
2023-01-27T06:28:45.787Z,30.23
2023-01-27T06:31:18.981Z,18.52
2023-01-27T06:33:47.715Z,19.92
2023-01-27T06:36:17.332Z,24.75
2023-01-27T06:38:45.054Z,24.55
2023-01-27T06:41:12.604Z,27.67
2023-01-27T06:43:41.920Z,24.33
2023-01-27T06:46:09.719Z,32.38
2023-01-27T06:48:38.173Z,26.40
2023-01-27T06:51:05.820Z,36.78
2023-01-27T06:53:34.937Z,37.25
2023-01-27T06:56:02.463Z,33.05
2023-01-27T06:58:30.514Z,32.15
2023-01-27T07:00:58.011Z,34.42
2023-01-27T07:03:25.468Z,46.47
2023-01-27T07:05:53.113Z,42.95
2023-01-27T07:08:20.579Z,37.90
2023-01-27T07:10:48.185Z,88.82
2023-01-27T07:13:15.995Z,148.98
2023-01-27T07:15:44.026Z,101.35
2023-01-27T07:18:12.313Z,60.50
2023-01-27T07:20:42.046Z,39.83
2023-01-27T07:23:09.622Z,43.45
2023-01-27T07:25:37.191Z,36.60
2023-01-27T07:28:05.153Z,40.15
2023-01-27T07:30:34.226Z,28.17
2023-01-27T07:33:11.381Z,22.83
2023-01-27T07:35:39.419Z,34.40
2023-01-27T07:38:07.784Z,34.58
2023-01-27T07:40:35.599Z,38.30
2023-01-27T07:43:03.344Z,46.20
2023-01-27T07:45:31.007Z,41.40
2023-01-27T07:48:06.044Z,38.65
2023-01-27T07:50:34.188Z,35.75
2023-01-27T07:53:03.316Z,43.22
2023-01-27T07:55:31.084Z,36.13
2023-01-27T07:57:58.640Z,29.00
2023-01-27T08:00:26.321Z,30.42
2023-01-27T08:02:54.592Z,28.15
2023-01-27T08:05:25.291Z,34.80
2023-01-27T08:07:54.477Z,29.10
2023-01-27T08:10:22.447Z,23.63
2023-01-27T08:12:50.123Z,40.47
2023-01-27T08:15:19.235Z,32.33
2023-01-27T08:17:56.841Z,33.10
2023-01-27T08:20:26.484Z,22.60
2023-01-27T08:22:53.942Z,27.17
2023-01-27T08:25:21.591Z,31.95
2023-01-27T08:27:52.593Z,31.98
2023-01-27T08:30:23.379Z,21.35
2023-01-27T08:32:52.116Z,28.85
2023-01-27T08:35:20.106Z,33.08
2023-01-27T08:37:48.780Z,26.77
2023-01-27T08:40:16.644Z,23.98
2023-01-27T08:42:44.558Z,36.25
2023-01-27T08:45:12.305Z,24.90
2023-01-27T08:47:39.957Z,29.10
2023-01-27T08:50:08.525Z,26.65
2023-01-27T08:52:36.365Z,27.55
2023-01-27T08:55:06.961Z,30.80
2023-01-27T08:57:36.985Z,35.38
2023-01-27T09:00:07.086Z,41.78
2023-01-27T09:02:34.938Z,33.17
2023-01-27T09:05:05.461Z,33.50
2023-01-27T09:07:34.734Z,28.40
2023-01-27T09:10:18.135Z,31.10
2023-01-27T09:12:45.865Z,37.15
2023-01-27T09:15:14.222Z,34.28
2023-01-27T09:17:42.544Z,32.17
2023-01-27T09:20:11.302Z,28.67
2023-01-27T09:22:42.345Z,33.95
2023-01-27T09:25:13.925Z,41.17
2023-01-27T09:27:41.552Z,43.92
2023-01-27T09:30:11.089Z,36.45
2023-01-27T09:32:39.221Z,29.10
2023-01-27T09:35:07.287Z,38.60
2023-01-27T09:37:39.688Z,31.25
2023-01-27T09:40:13.472Z,27.27
2023-01-27T09:42:50.079Z,26.70
2023-01-27T09:45:38.320Z,32.65
2023-01-27T09:48:24.020Z,33.70
2023-01-27T09:51:03.263Z,45.70
2023-01-27T09:53:40.665Z,29.02
2023-01-27T09:56:21.366Z,30.60
2023-01-27T09:58:48.705Z,36.78
2023-01-27T10:01:34.336Z,26.58
2023-01-27T10:04:20.838Z,30.05
2023-01-27T10:07:08.609Z,26.85
2023-01-27T10:09:51.877Z,45.63
2023-01-27T10:12:26.068Z,47.75
2023-01-27T10:15:05.060Z,52.53
2023-01-27T10:17:38.660Z,67.55
2023-01-27T10:20:25.065Z,41.65
2023-01-27T10:22:58.432Z,27.02
2023-01-27T10:25:35.370Z,39.92
2023-01-27T10:28:11.863Z,34.25
2023-01-27T10:30:41.414Z,48.97
2023-01-27T10:33:15.009Z,47.55
2023-01-27T10:35:53.537Z,43.92
2023-01-27T10:38:40.033Z,41.55
2023-01-27T10:41:52.325Z,35.08
2023-01-27T10:44:54.158Z,37.85
2023-01-27T10:47:58.621Z,28.90
2023-01-27T10:50:30.489Z,37.72
2023-01-27T10:53:10.605Z,35.92
2023-01-27T10:55:56.507Z,35.13
2023-01-27T10:58:33.236Z,37.08
2023-01-27T11:03:58.221Z,42.92
2023-01-27T11:06:36.808Z,36.33
2023-01-27T11:09:26.051Z,39.08
2023-01-27T11:11:53.488Z,44.10
2023-01-27T11:14:26.720Z,49.08
2023-01-27T11:17:24.887Z,47.03
2023-01-27T11:19:58.153Z,34.83
2023-01-27T11:22:35.479Z,50.45
2023-01-27T11:25:08.290Z,42.83
2023-01-27T11:28:00.922Z,46.38
2023-01-27T11:30:52.937Z,43.17
2023-01-27T11:33:31.024Z,41.78
2023-01-27T11:35:58.513Z,44.38
2023-01-27T11:38:27.682Z,42.92
2023-01-27T11:40:55.354Z,34.78
2023-01-27T11:43:26.089Z,38.00
2023-01-27T11:45:57.918Z,50.75
2023-01-27T11:48:25.455Z,36.05
2023-01-27T11:50:53.519Z,32.45
2023-01-27T11:53:36.756Z,34.30
2023-01-27T11:56:06.485Z,41.17
2023-01-27T11:58:41.098Z,59.75
2023-01-27T12:01:19.641Z,48.67
2023-01-27T12:04:14.458Z,42.83
2023-01-27T12:06:50.790Z,34.50
2023-01-27T12:09:40.756Z,29.83
2023-01-27T12:12:14.875Z,31.02
2023-01-27T12:14:50.012Z,33.83
2023-01-27T12:17:35.199Z,37.88
2023-01-27T12:20:07.500Z,38.10
2023-01-27T12:22:39.538Z,28.17
2023-01-27T12:25:14.554Z,32.97
2023-01-27T12:27:50.130Z,22.52
2023-01-27T12:30:29.029Z,30.27
2023-01-27T12:32:56.693Z,26.23
2023-01-27T12:35:34.178Z,22.52
2023-01-27T12:38:16.501Z,27.35
2023-01-27T12:40:46.679Z,24.33
2023-01-27T12:43:19.039Z,25.25
2023-01-27T12:46:03.672Z,22.83
2023-01-27T12:48:33.118Z,20.00
2023-01-27T12:51:21.774Z,21.00
2023-01-27T12:53:50.245Z,25.77
2023-01-27T12:56:23.415Z,20.48
2023-01-27T12:59:00.148Z,24.58
2023-01-27T13:01:34.844Z,22.15
2023-01-27T13:04:20.417Z,27.25
2023-01-27T13:06:54.520Z,23.83
2023-01-27T13:10:02.749Z,20.35
2023-01-27T13:12:32.645Z,23.98
2023-01-27T13:15:09.133Z,19.17
2023-01-27T13:17:49.084Z,21.83
2023-01-27T13:20:31.324Z,22.65
2023-01-27T13:23:20.638Z,23.77
2023-01-27T13:26:09.325Z,20.35
2023-01-27T13:29:10.231Z,23.70
2023-01-27T13:31:43.261Z,23.83
2023-01-27T13:34:19.349Z,23.92
2023-01-27T13:37:01.236Z,22.02
2023-01-27T13:39:41.635Z,16.67
2023-01-27T13:42:52.463Z,19.13
2023-01-27T13:45:23.790Z,17.77
2023-01-27T13:48:21.152Z,26.67
2023-01-27T13:51:03.672Z,22.20
2023-01-27T13:53:31.510Z,39.67
2023-01-27T13:56:01.798Z,33.35
2023-01-27T13:58:50.464Z,30.60
2023-01-27T14:01:36.403Z,23.75
2023-01-27T14:04:28.595Z,24.95
2023-01-27T14:07:18.310Z,20.13
2023-01-27T14:10:14.336Z,23.58
2023-01-27T14:12:57.469Z,21.30
2023-01-27T14:15:30.064Z,23.02
2023-01-27T14:21:42.915Z,18.50
2023-01-27T14:24:33.653Z,23.17
2023-01-27T14:27:13.004Z,19.50
2023-01-27T14:30:32.528Z,22.35
2023-01-27T14:33:17.300Z,21.95
2023-01-27T14:36:12.338Z,22.35
2023-01-27T14:43:07.429Z,33.78
2023-01-27T14:45:37.115Z,28.52
2023-01-27T14:48:07.643Z,30.50
2023-01-27T14:50:43.985Z,28.30
2023-01-27T14:53:25.448Z,20.80
2023-01-27T14:56:05.910Z,20.17
2023-01-27T14:58:47.722Z,19.07
2023-01-27T15:01:53.676Z,17.77
2023-01-27T15:04:37.719Z,21.83
2023-01-27T15:07:08.117Z,20.98
2023-01-27T15:10:17.753Z,23.42
2023-01-27T15:13:09.995Z,15.60
2023-01-27T15:16:18.881Z,15.55
2023-01-27T15:18:53.551Z,23.10
2023-01-27T15:21:26.228Z,27.13
2023-01-27T15:24:15.055Z,22.90
2023-01-27T15:26:42.481Z,19.20
2023-01-27T15:29:14.400Z,16.13
2023-01-27T15:31:43.161Z,14.02
2023-01-27T15:34:22.132Z,19.08
2023-01-27T15:37:18.126Z,15.45
2023-01-27T15:40:05.593Z,15.02
2023-01-27T15:42:51.966Z,15.63
2023-01-27T15:45:45.783Z,15.32
2023-01-27T15:48:15.833Z,11.38
2023-01-27T15:50:58.985Z,14.55
2023-01-27T15:53:34.706Z,12.90
2023-01-27T15:56:06.837Z,16.80
2023-01-27T15:58:38.029Z,18.15
2023-01-27T16:01:09.759Z,14.52
2023-01-27T16:03:43.863Z,17.17
2023-01-27T16:06:16.067Z,22.92
2023-01-27T16:08:56.991Z,16.05
2023-01-27T16:11:44.542Z,15.52
2023-01-27T16:14:11.889Z,22.45
2023-01-27T16:16:40.481Z,19.75
2023-01-27T16:19:11.191Z,15.52
2023-01-27T16:21:50.839Z,17.98
2023-01-27T16:24:29.262Z,14.07
2023-01-27T16:27:08.095Z,15.80
2023-01-27T16:29:39.933Z,20.60
2023-01-27T16:32:15.498Z,19.08
2023-01-27T16:35:07.248Z,23.73
2023-01-27T16:37:38.472Z,12.65
2023-01-27T16:40:07.545Z,17.80
2023-01-27T16:42:38.248Z,17.33
2023-01-27T16:45:15.897Z,15.57
2023-01-27T16:47:45.447Z,21.20
2023-01-27T16:50:32.860Z,18.08
2023-01-27T16:53:01.068Z,14.77
2023-01-27T16:55:28.541Z,18.67
2023-01-27T16:57:56.122Z,18.38
2023-01-27T17:00:52.255Z,20.55
2023-01-27T17:03:40.322Z,14.93
2023-01-27T17:06:09.188Z,19.88
2023-01-27T17:08:43.817Z,16.55
2023-01-27T17:11:18.397Z,16.67
2023-01-27T17:13:51.852Z,20.15
2023-01-27T17:16:29.724Z,21.42
2023-01-27T17:19:02.507Z,21.25
2023-01-27T17:21:33.800Z,29.27
2023-01-27T17:24:03.877Z,39.33
2023-01-27T17:26:32.256Z,37.75
2023-01-27T17:28:59.981Z,38.25
2023-01-27T17:31:27.554Z,24.98
2023-01-27T17:34:01.002Z,26.75
2023-01-27T17:36:29.315Z,24.58
2023-01-27T17:38:59.900Z,24.63
2023-01-27T17:41:36.857Z,28.38
2023-01-27T17:44:11.224Z,42.13
2023-01-27T17:46:38.828Z,34.95
2023-01-27T17:49:17.702Z,40.58
2023-01-27T17:51:51.513Z,31.08
2023-01-27T17:54:33.353Z,26.05
2023-01-27T17:57:21.524Z,19.73
2023-01-27T18:00:11.528Z,22.23
2023-01-27T18:02:54.894Z,19.50
2023-01-27T18:05:24.325Z,22.42
2023-01-27T18:07:52.255Z,21.08
2023-01-27T18:10:40.889Z,21.58
2023-01-27T18:13:20.837Z,17.48
2023-01-27T18:15:52.254Z,22.52
2023-01-27T18:18:27.324Z,17.20
2023-01-27T18:21:04.055Z,23.88
2023-01-27T18:23:54.663Z,12.70
2023-01-27T18:26:26.814Z,19.52
2023-01-27T18:29:08.193Z,22.83
2023-01-27T18:31:38.176Z,19.45
2023-01-27T18:34:05.609Z,18.10
2023-01-27T18:36:35.659Z,16.30
2023-01-27T18:39:33.106Z,12.80
2023-01-27T18:42:01.741Z,14.60
2023-01-27T18:44:38.061Z,15.57
2023-01-27T18:47:17.590Z,20.20
2023-01-27T18:49:54.124Z,18.40
2023-01-27T18:52:21.609Z,22.65
2023-01-27T18:54:49.251Z,16.60
2023-01-27T18:57:17.504Z,20.85
2023-01-27T18:59:45.202Z,18.38
2023-01-27T19:02:14.984Z,18.42
2023-01-27T19:04:42.609Z,19.92
2023-01-27T19:07:15.885Z,18.23
2023-01-27T19:09:44.352Z,17.05
2023-01-27T19:12:11.912Z,17.55
2023-01-27T19:14:41.644Z,19.38
2023-01-27T19:17:17.010Z,25.25
2023-01-27T19:19:45.392Z,22.08
2023-01-27T19:22:16.943Z,22.92
2023-01-27T19:24:48.731Z,30.65
2023-01-27T19:27:16.479Z,14.55
2023-01-27T19:29:43.872Z,18.95
2023-01-27T19:32:13.370Z,30.40
2023-01-27T19:34:40.986Z,27.48
2023-01-27T19:37:19.805Z,23.88
2023-01-27T19:39:49.099Z,23.55
2023-01-27T19:42:16.704Z,26.65
2023-01-27T19:44:44.353Z,33.67
2023-01-27T19:47:12.909Z,34.85
2023-01-27T19:49:40.487Z,40.80
2023-01-27T19:52:08.027Z,55.30
2023-01-27T19:54:35.522Z,47.13
2023-01-27T19:57:03.072Z,37.28
2023-01-27T19:59:30.672Z,35.35
2023-01-27T20:01:58.244Z,29.70
2023-01-27T20:04:26.747Z,24.00
2023-01-27T20:06:54.317Z,25.80
2023-01-27T20:09:22.477Z,22.40
2023-01-27T20:11:50.032Z,16.63
2023-01-27T20:14:26.042Z,24.15
2023-01-27T20:16:53.841Z,22.55
2023-01-27T20:19:21.346Z,29.45
2023-01-27T20:21:50.286Z,26.52
2023-01-27T20:24:18.609Z,25.80
2023-01-27T20:26:46.177Z,24.52
2023-01-27T20:29:14.260Z,26.75
2023-01-27T20:31:42.157Z,35.95
2023-01-27T20:34:09.643Z,30.00
2023-01-27T20:36:38.324Z,25.17
2023-01-27T20:39:05.983Z,26.35
2023-01-27T20:41:34.175Z,28.20
2023-01-27T20:44:01.650Z,24.15
2023-01-27T20:46:29.625Z,30.60
2023-01-27T20:48:58.775Z,27.42
2023-01-27T20:51:26.273Z,23.70
2023-01-27T20:53:53.773Z,30.90
2023-01-27T20:56:22.700Z,20.77
2023-01-27T20:58:50.243Z,26.08
2023-01-27T21:01:22.164Z,19.52
2023-01-27T21:03:50.453Z,26.08
2023-01-27T21:06:19.992Z,33.38
2023-01-27T21:08:49.286Z,35.92
2023-01-27T21:11:18.751Z,31.55
2023-01-27T21:13:46.633Z,29.73
2023-01-27T21:16:14.212Z,26.90
2023-01-27T21:18:42.207Z,27.77
2023-01-27T21:21:25.533Z,32.20
2023-01-27T21:23:54.050Z,27.45
2023-01-27T21:26:21.526Z,29.23
2023-01-27T21:28:49.119Z,33.25
2023-01-27T21:31:18.251Z,31.20
2023-01-27T21:33:45.980Z,29.88
2023-01-27T21:36:13.534Z,31.65
2023-01-27T21:38:41.080Z,37.60
2023-01-27T21:41:37.029Z,32.42
2023-01-27T21:44:23.484Z,35.53
2023-01-27T21:46:51.072Z,31.27
2023-01-27T21:49:18.841Z,35.90
2023-01-27T21:51:48.058Z,29.73
2023-01-27T21:54:16.600Z,25.93
2023-01-27T21:56:44.034Z,33.35
2023-01-27T21:59:12.167Z,24.98
2023-01-27T22:01:39.541Z,34.70
2023-01-27T22:04:06.931Z,26.30
2023-01-27T22:06:37.044Z,27.95
2023-01-27T22:09:05.094Z,33.83
2023-01-27T22:11:32.547Z,25.73
2023-01-27T22:14:00.394Z,30.42
2023-01-27T22:16:27.970Z,35.30
2023-01-27T22:18:55.457Z,21.98
2023-01-27T22:21:22.979Z,26.67
2023-01-27T22:23:50.521Z,25.50
2023-01-27T22:26:20.615Z,31.50
2023-01-27T22:28:48.575Z,19.33
2023-01-27T22:31:16.047Z,25.98
2023-01-27T22:33:43.731Z,29.30
2023-01-27T22:36:11.518Z,23.23
2023-01-27T22:38:39.068Z,19.85
2023-01-27T22:41:07.197Z,21.92
2023-01-27T22:43:34.577Z,27.95
2023-01-27T22:46:02.728Z,19.55
2023-01-27T22:48:33.652Z,18.60
2023-01-27T22:51:04.724Z,20.92
2023-01-27T22:56:00.401Z,17.70
2023-01-27T22:58:28.813Z,20.40
2023-01-27T23:00:56.417Z,21.98
2023-01-27T23:03:23.920Z,23.80
2023-01-27T23:05:51.288Z,26.98
2023-01-27T23:08:21.508Z,28.20
2023-01-27T23:10:49.689Z,23.27
2023-01-27T23:13:17.297Z,16.58
2023-01-27T23:15:45.748Z,25.70
2023-01-27T23:18:13.470Z,25.08
2023-01-27T23:20:42.235Z,26.75
2023-01-27T23:23:09.746Z,30.38
2023-01-27T23:25:46.596Z,19.00
2023-01-27T23:28:16.549Z,23.27
2023-01-27T23:30:45.079Z,18.67
2023-01-27T23:33:13.045Z,19.80
2023-01-27T23:35:40.866Z,20.35
2023-01-27T23:38:19.326Z,27.02
2023-01-27T23:40:54.721Z,32.15
2023-01-27T23:43:22.534Z,26.27
2023-01-27T23:45:53.413Z,17.58
2023-01-27T23:48:21.651Z,22.42
2023-01-27T23:50:49.212Z,19.52
2023-01-27T23:53:16.983Z,29.10
2023-01-27T23:55:44.694Z,24.30
2023-01-27T23:58:12.391Z,24.88
